sensor_id;sensor_type;location;lat;lon;timestamp;pressure;altitude;pressure_sealevel;temperature;humidity
70589;BME280;58152;49.202;18.744;2022-12-07T00:00:55;96972.16;;;3.16;74.01
70589;BME280;58152;49.202;18.744;2022-12-07T00:03:21;96966.16;;;3.14;74.45
70589;BME280;58152;49.202;18.744;2022-12-07T00:05:58;96960.13;;;3.14;74.45
70589;BME280;58152;49.202;18.744;2022-12-07T00:08:25;96956.81;;;3.07;74.72
70589;BME280;58152;49.202;18.744;2022-12-07T00:10:50;96972.25;;;3.12;74.31
70589;BME280;58152;49.202;18.744;2022-12-07T00:13:16;96961.09;;;3.08;74.59
70589;BME280;58152;49.202;18.744;2022-12-07T00:15:41;96956.88;;;3.04;74.64
70589;BME280;58152;49.202;18.744;2022-12-07T00:18:14;96952.53;;;3.04;74.20
70589;BME280;58152;49.202;18.744;2022-12-07T00:20:40;96961.06;;;3.10;74.65
70589;BME280;58152;49.202;18.744;2022-12-07T00:23:05;96951.59;;;3.09;74.88
70589;BME280;58152;49.202;18.744;2022-12-07T00:25:31;96952.38;;;3.11;74.52
70589;BME280;58152;49.202;18.744;2022-12-07T00:27:57;96945.56;;;3.08;74.46
70589;BME280;58152;49.202;18.744;2022-12-07T00:30:23;96949.88;;;3.08;74.88
70589;BME280;58152;49.202;18.744;2022-12-07T00:32:49;96955.06;;;3.08;74.93
70589;BME280;58152;49.202;18.744;2022-12-07T00:35:15;96960.16;;;3.11;74.89
70589;BME280;58152;49.202;18.744;2022-12-07T00:37:40;96949.88;;;3.08;74.88
70589;BME280;58152;49.202;18.744;2022-12-07T00:40:06;96954.94;;;3.14;74.74
70589;BME280;58152;49.202;18.744;2022-12-07T00:42:32;96947.84;;;3.22;74.98
70589;BME280;58152;49.202;18.744;2022-12-07T00:44:58;96947.63;;;3.31;75.23
70589;BME280;58152;49.202;18.744;2022-12-07T00:47:23;96948.31;;;3.39;74.84
70589;BME280;58152;49.202;18.744;2022-12-07T00:49:49;96948.31;;;3.38;74.66
70589;BME280;58152;49.202;18.744;2022-12-07T00:52:14;96937.25;;;3.31;74.36
70589;BME280;58152;49.202;18.744;2022-12-07T00:54:40;96949.25;;;3.35;74.37
70589;BME280;58152;49.202;18.744;2022-12-07T00:57:07;96949.31;;;3.32;74.32
70589;BME280;58152;49.202;18.744;2022-12-07T00:59:32;96946.72;;;3.32;74.66
70589;BME280;58152;49.202;18.744;2022-12-07T01:01:58;96941.59;;;3.29;74.61
70589;BME280;58152;49.202;18.744;2022-12-07T01:04:24;96938.34;;;3.21;74.62
70589;BME280;58152;49.202;18.744;2022-12-07T01:06:50;96938.28;;;3.24;74.50
70589;BME280;58152;49.202;18.744;2022-12-07T01:09:16;96933.19;;;3.21;74.60
70589;BME280;58152;49.202;18.744;2022-12-07T01:11:41;96946.13;;;3.21;74.76
70589;BME280;58152;49.202;18.744;2022-12-07T01:14:08;96936.63;;;3.21;74.85
70589;BME280;58152;49.202;18.744;2022-12-07T01:16:34;96937.41;;;3.23;74.67
70589;BME280;58152;49.202;18.744;2022-12-07T01:19:00;96943.44;;;3.25;74.89
70589;BME280;58152;49.202;18.744;2022-12-07T01:21:28;96945.19;;;3.23;75.03
70589;BME280;58152;49.202;18.744;2022-12-07T01:23:54;96938.38;;;3.19;75.11
70589;BME280;58152;49.202;18.744;2022-12-07T01:26:23;96945.16;;;3.25;74.96
70589;BME280;58152;49.202;18.744;2022-12-07T01:28:49;96937.47;;;3.20;75.08
70589;BME280;58152;49.202;18.744;2022-12-07T01:31:17;96932.28;;;3.20;74.96
70589;BME280;58152;49.202;18.744;2022-12-07T01:33:49;96942.56;;;3.25;74.94
70589;BME280;58152;49.202;18.744;2022-12-07T01:36:23;96929.69;;;3.22;74.92
70589;BME280;58152;49.202;18.744;2022-12-07T01:38:53;96930.50;;;3.24;75.13
70589;BME280;58152;49.202;18.744;2022-12-07T01:41:20;96927.91;;;3.24;74.64
70589;BME280;58152;49.202;18.744;2022-12-07T01:44:10;96934.78;;;3.25;75.01
70589;BME280;58152;49.202;18.744;2022-12-07T01:46:36;96933.06;;;3.25;75.03
70589;BME280;58152;49.202;18.744;2022-12-07T01:49:03;96919.22;;;3.26;75.11
70589;BME280;58152;49.202;18.744;2022-12-07T01:51:31;96922.38;;;3.38;75.07
70589;BME280;58152;49.202;18.744;2022-12-07T01:53:57;96922.22;;;3.45;74.96
70589;BME280;58152;49.202;18.744;2022-12-07T01:56:27;96912.53;;;3.52;74.82
70589;BME280;58152;49.202;18.744;2022-12-07T01:58:57;96910.78;;;3.54;74.19
70589;BME280;58152;49.202;18.744;2022-12-07T02:01:24;96912.63;;;3.49;74.23
70589;BME280;58152;49.202;18.744;2022-12-07T02:03:49;96912.69;;;3.46;74.29
70589;BME280;58152;49.202;18.744;2022-12-07T02:06:18;96916.19;;;3.45;74.19
70589;BME280;58152;49.202;18.744;2022-12-07T02:08:44;96915.44;;;3.40;74.29
70589;BME280;58152;49.202;18.744;2022-12-07T02:11:10;96907.69;;;3.38;74.06
70589;BME280;58152;49.202;18.744;2022-12-07T02:13:38;96918.06;;;3.38;74.44
70589;BME280;58152;49.202;18.744;2022-12-07T02:28:31;96901.53;;;3.42;74.58
70589;BME280;58152;49.202;18.744;2022-12-07T02:31:03;96898.88;;;3.45;74.31
70589;BME280;58152;49.202;18.744;2022-12-07T02:33:36;96896.22;;;3.48;74.17
70589;BME280;58152;49.202;18.744;2022-12-07T02:36:12;96891.22;;;3.41;74.31
70589;BME280;58152;49.202;18.744;2022-12-07T02:38:54;96886.13;;;3.36;74.50
70589;BME280;58152;49.202;18.744;2022-12-07T02:41:36;96891.44;;;3.31;74.34
70589;BME280;58152;49.202;18.744;2022-12-07T02:44:07;96894.13;;;3.27;74.24
70589;BME280;58152;49.202;18.744;2022-12-07T02:46:59;96901.06;;;3.25;74.31
70589;BME280;58152;49.202;18.744;2022-12-07T02:49:27;96900.22;;;3.24;74.29
70589;BME280;58152;49.202;18.744;2022-12-07T02:51:53;96906.34;;;3.22;74.80
70589;BME280;58152;49.202;18.744;2022-12-07T02:54:20;96905.63;;;3.17;74.80
70589;BME280;58152;49.202;18.744;2022-12-07T03:10:39;96900.09;;;3.30;74.76
70589;BME280;58152;49.202;18.744;2022-12-07T03:13:12;96894.97;;;3.27;74.51
70589;BME280;58152;49.202;18.744;2022-12-07T03:15:42;96892.44;;;3.26;74.53
70589;BME280;58152;49.202;18.744;2022-12-07T03:18:10;96893.28;;;3.25;74.93
70589;BME280;58152;49.202;18.744;2022-12-07T03:20:39;96896.84;;;3.22;74.71
70589;BME280;58152;49.202;18.744;2022-12-07T03:23:07;96901.97;;;3.24;74.27
70589;BME280;58152;49.202;18.744;2022-12-07T03:25:39;96896.78;;;3.24;74.70
70589;BME280;58152;49.202;18.744;2022-12-07T03:28:07;96889.94;;;3.21;74.59
70589;BME280;58152;49.202;18.744;2022-12-07T03:33:53;96895.16;;;3.20;74.64
70589;BME280;58152;49.202;18.744;2022-12-07T03:36:42;96888.09;;;3.25;75.52
70589;BME280;58152;49.202;18.744;2022-12-07T03:41:35;96891.38;;;3.35;75.01
70589;BME280;58152;49.202;18.744;2022-12-07T03:44:02;96889.53;;;3.38;74.73
70589;BME280;58152;49.202;18.744;2022-12-07T03:52:02;96885.41;;;3.31;74.55
70589;BME280;58152;49.202;18.744;2022-12-07T03:54:44;96882.91;;;3.26;74.32
70589;BME280;58152;49.202;18.744;2022-12-07T03:57:12;96885.53;;;3.25;74.68
70589;BME280;58152;49.202;18.744;2022-12-07T03:59:39;96879.56;;;3.21;74.49
70589;BME280;58152;49.202;18.744;2022-12-07T04:02:06;96877.09;;;3.17;74.80
70589;BME280;58152;49.202;18.744;2022-12-07T04:04:33;96873.66;;;3.16;74.35
70589;BME280;58152;49.202;18.744;2022-12-07T04:06:59;96871.91;;;3.17;74.46
70589;BME280;58152;49.202;18.744;2022-12-07T04:09:24;96884.09;;;3.13;74.79
70589;BME280;58152;49.202;18.744;2022-12-07T04:11:50;96883.25;;;3.11;74.74
70589;BME280;58152;49.202;18.744;2022-12-07T04:14:15;96873.88;;;3.05;74.82
70589;BME280;58152;49.202;18.744;2022-12-07T04:16:48;96889.38;;;3.09;74.53
70589;BME280;58152;49.202;18.744;2022-12-07T04:19:16;96879.16;;;3.02;74.92
70589;BME280;58152;49.202;18.744;2022-12-07T04:21:41;96884.16;;;3.10;74.86
70589;BME280;58152;49.202;18.744;2022-12-07T04:24:07;96879.78;;;3.12;74.93
70589;BME280;58152;49.202;18.744;2022-12-07T04:26:33;96871.22;;;3.09;74.83
70589;BME280;58152;49.202;18.744;2022-12-07T04:28:58;96879.84;;;3.09;74.56
70589;BME280;58152;49.202;18.744;2022-12-07T04:31:24;96875.53;;;3.10;74.94
70589;BME280;58152;49.202;18.744;2022-12-07T04:33:49;96882.44;;;3.09;74.74
70589;BME280;58152;49.202;18.744;2022-12-07T04:36:16;96876.47;;;3.07;74.50
70589;BME280;58152;49.202;18.744;2022-12-07T04:38:42;96876.38;;;3.10;74.79
70589;BME280;58152;49.202;18.744;2022-12-07T04:41:08;96880.66;;;3.13;74.56
70589;BME280;58152;49.202;18.744;2022-12-07T04:43:35;96872.94;;;3.10;74.92
70589;BME280;58152;49.202;18.744;2022-12-07T04:46:01;96885.72;;;3.16;74.73
70589;BME280;58152;49.202;18.744;2022-12-07T04:48:28;96877.16;;;3.14;74.67
70589;BME280;58152;49.202;18.744;2022-12-07T04:50:53;96873.72;;;3.13;74.47
70589;BME280;58152;49.202;18.744;2022-12-07T04:53:19;96871.22;;;3.09;74.46
70589;BME280;58152;49.202;18.744;2022-12-07T04:55:45;96893.50;;;3.17;74.73
70589;BME280;58152;49.202;18.744;2022-12-07T04:58:12;96878.91;;;3.13;74.55
70589;BME280;58152;49.202;18.744;2022-12-07T05:00:37;96880.59;;;3.14;74.59
70589;BME280;58152;49.202;18.744;2022-12-07T05:03:03;96883.22;;;3.13;74.67
70589;BME280;58152;49.202;18.744;2022-12-07T05:05:28;96890.84;;;3.19;74.32
70589;BME280;58152;49.202;18.744;2022-12-07T05:07:54;96891.72;;;3.19;74.79
70589;BME280;58152;49.202;18.744;2022-12-07T05:10:20;96893.50;;;3.16;74.68
70589;BME280;58152;49.202;18.744;2022-12-07T05:12:45;96891.81;;;3.16;74.73
70589;BME280;58152;49.202;18.744;2022-12-07T05:15:11;96876.34;;;3.12;74.68
70589;BME280;58152;49.202;18.744;2022-12-07T05:17:37;96883.16;;;3.16;74.65
70589;BME280;58152;49.202;18.744;2022-12-07T05:20:04;96881.44;;;3.15;74.53
70589;BME280;58152;49.202;18.744;2022-12-07T05:22:30;96885.72;;;3.16;74.66
70589;BME280;58152;49.202;18.744;2022-12-07T05:24:55;96866.78;;;3.14;74.63
70589;BME280;58152;49.202;18.744;2022-12-07T05:27:21;96872.81;;;3.14;74.94
70589;BME280;58152;49.202;18.744;2022-12-07T05:29:46;96870.28;;;3.13;74.85
70589;BME280;58152;49.202;18.744;2022-12-07T05:32:12;96886.63;;;3.16;74.65
70589;BME280;58152;49.202;18.744;2022-12-07T05:34:40;96889.22;;;3.15;74.64
70589;BME280;58152;49.202;18.744;2022-12-07T05:37:05;96885.81;;;3.13;74.56
70589;BME280;58152;49.202;18.744;2022-12-07T05:39:33;96888.38;;;3.14;74.77
70589;BME280;58152;49.202;18.744;2022-12-07T05:42:02;96891.81;;;3.16;74.97
70589;BME280;58152;49.202;18.744;2022-12-07T05:44:40;96894.41;;;3.16;74.71
70589;BME280;58152;49.202;18.744;2022-12-07T05:47:06;96888.44;;;3.11;75.01
70589;BME280;58152;49.202;18.744;2022-12-07T05:49:31;96882.34;;;3.14;74.79
70589;BME280;58152;49.202;18.744;2022-12-07T05:51:57;96885.03;;;3.09;74.98
70589;BME280;58152;49.202;18.744;2022-12-07T05:54:23;96898.81;;;3.11;74.84
70589;BME280;58152;49.202;18.744;2022-12-07T05:56:48;96890.97;;;3.14;74.86
70589;BME280;58152;49.202;18.744;2022-12-07T05:59:17;96887.59;;;3.11;74.80
70589;BME280;58152;49.202;18.744;2022-12-07T06:02:05;96903.06;;;3.14;74.54
70589;BME280;58152;49.202;18.744;2022-12-07T06:04:38;96892.88;;;3.08;74.30
70589;BME280;58152;49.202;18.744;2022-12-07T06:07:05;96898.97;;;3.05;74.65
70589;BME280;58152;49.202;18.744;2022-12-07T06:09:31;96898.84;;;3.10;74.40
70589;BME280;58152;49.202;18.744;2022-12-07T06:11:57;96903.97;;;3.13;74.17
70589;BME280;58152;49.202;18.744;2022-12-07T06:14:41;96896.31;;;3.06;74.40
70589;BME280;58152;49.202;18.744;2022-12-07T06:17:07;96905.78;;;3.09;74.77
70589;BME280;58152;49.202;18.744;2022-12-07T06:19:33;96894.63;;;3.05;74.83
70589;BME280;58152;49.202;18.744;2022-12-07T06:21:59;96901.44;;;3.10;74.74
70589;BME280;58152;49.202;18.744;2022-12-07T06:24:32;96899.00;;;3.03;74.70
70589;BME280;58152;49.202;18.744;2022-12-07T06:27:03;96901.59;;;3.03;74.50
70589;BME280;58152;49.202;18.744;2022-12-07T06:29:31;96899.00;;;3.02;74.65
70589;BME280;58152;49.202;18.744;2022-12-07T06:31:56;96900.69;;;3.04;74.80
70589;BME280;58152;49.202;18.744;2022-12-07T06:34:26;96899.84;;;3.04;74.68
70589;BME280;58152;49.202;18.744;2022-12-07T06:36:52;96897.22;;;3.05;75.04
70589;BME280;58152;49.202;18.744;2022-12-07T06:39:27;96901.53;;;3.05;74.70
70589;BME280;58152;49.202;18.744;2022-12-07T06:41:53;96906.69;;;3.06;74.56
70589;BME280;58152;49.202;18.744;2022-12-07T06:44:20;96906.66;;;3.08;74.81
70589;BME280;58152;49.202;18.744;2022-12-07T06:46:49;96897.38;;;2.99;75.07
70589;BME280;58152;49.202;18.744;2022-12-07T06:49:15;96901.66;;;3.00;74.46
70589;BME280;58152;49.202;18.744;2022-12-07T06:51:45;96913.63;;;3.06;74.88
70589;BME280;58152;49.202;18.744;2022-12-07T06:54:12;96911.97;;;3.03;74.29
70589;BME280;58152;49.202;18.744;2022-12-07T06:56:38;96915.34;;;3.05;74.52
70589;BME280;58152;49.202;18.744;2022-12-07T06:59:10;96923.13;;;3.05;74.49
70589;BME280;58152;49.202;18.744;2022-12-07T07:01:38;96918.91;;;3.01;74.51
70589;BME280;58152;49.202;18.744;2022-12-07T07:04:04;96926.63;;;3.04;74.46
70589;BME280;58152;49.202;18.744;2022-12-07T07:06:30;96930.91;;;3.05;74.35
70589;BME280;58152;49.202;18.744;2022-12-07T07:08:56;96924.09;;;3.01;74.29
70589;BME280;58152;49.202;18.744;2022-12-07T07:11:22;96926.63;;;3.04;74.48
70589;BME280;58152;49.202;18.744;2022-12-07T07:13:47;96930.94;;;3.04;74.58
70589;BME280;58152;49.202;18.744;2022-12-07T07:16:13;96931.81;;;3.04;74.65
70589;BME280;58152;49.202;18.744;2022-12-07T07:18:38;96934.44;;;3.03;74.29
70589;BME280;58152;49.202;18.744;2022-12-07T07:21:04;96931.00;;;3.02;74.45
70589;BME280;58152;49.202;18.744;2022-12-07T07:23:30;96931.00;;;3.02;74.43
70589;BME280;58152;49.202;18.744;2022-12-07T07:25:56;96938.66;;;3.07;74.43
70589;BME280;58152;49.202;18.744;2022-12-07T07:28:22;96935.25;;;3.05;74.26
70589;BME280;58152;49.202;18.744;2022-12-07T07:30:47;96943.81;;;3.09;74.21
70589;BME280;58152;49.202;18.744;2022-12-07T07:33:13;96936.03;;;3.09;74.16
70589;BME280;58152;49.202;18.744;2022-12-07T07:35:39;96934.22;;;3.12;74.56
70589;BME280;58152;49.202;18.744;2022-12-07T07:38:05;96941.16;;;3.12;73.90
70589;BME280;58152;49.202;18.744;2022-12-07T07:40:30;96943.72;;;3.13;73.98
70589;BME280;58152;49.202;18.744;2022-12-07T07:42:58;96938.63;;;3.09;73.87
70589;BME280;58152;49.202;18.744;2022-12-07T07:45:25;96933.41;;;3.10;74.08
70589;BME280;58152;49.202;18.744;2022-12-07T07:47:51;96941.97;;;3.14;73.75
70589;BME280;58152;49.202;18.744;2022-12-07T07:50:17;96952.28;;;3.15;73.58
70589;BME280;58152;49.202;18.744;2022-12-07T07:52:43;96950.59;;;3.14;73.33
70589;BME280;58152;49.202;18.744;2022-12-07T07:55:13;96954.06;;;3.13;73.33
70589;BME280;58152;49.202;18.744;2022-12-07T07:57:41;96946.34;;;3.10;73.12
70589;BME280;58152;49.202;18.744;2022-12-07T08:00:14;96947.25;;;3.09;72.73
70589;BME280;58152;49.202;18.744;2022-12-07T08:02:41;96953.22;;;3.13;72.75
70589;BME280;58152;49.202;18.744;2022-12-07T08:05:08;96948.94;;;3.10;72.68
70589;BME280;58152;49.202;18.744;2022-12-07T08:07:34;96962.75;;;3.12;72.53
70589;BME280;58152;49.202;18.744;2022-12-07T08:09:59;96949.88;;;3.08;72.44
70589;BME280;58152;49.202;18.744;2022-12-07T08:12:25;96960.16;;;3.12;72.53
70589;BME280;58152;49.202;18.744;2022-12-07T08:14:50;96962.84;;;3.08;71.91
70589;BME280;58152;49.202;18.744;2022-12-07T08:17:15;96948.16;;;3.06;72.33
70589;BME280;58152;49.202;18.744;2022-12-07T08:19:42;96960.25;;;3.08;71.90
70589;BME280;58152;49.202;18.744;2022-12-07T08:22:07;96958.41;;;3.13;71.96
70589;BME280;58152;49.202;18.744;2022-12-07T08:24:34;96951.59;;;3.09;72.01
70589;BME280;58152;49.202;18.744;2022-12-07T08:26:59;96968.72;;;3.14;71.92
70589;BME280;58152;49.202;18.744;2022-12-07T08:29:25;96963.56;;;3.14;71.77
70589;BME280;58152;49.202;18.744;2022-12-07T08:31:51;96966.97;;;3.16;72.00
70589;BME280;58152;49.202;18.744;2022-12-07T08:34:16;96965.16;;;3.20;71.99
70589;BME280;58152;49.202;18.744;2022-12-07T08:36:53;96966.88;;;3.21;72.02
70589;BME280;58152;49.202;18.744;2022-12-07T08:39:19;96959.06;;;3.22;71.91
70589;BME280;58152;49.202;18.744;2022-12-07T08:41:45;96965.91;;;3.25;71.85
70589;BME280;58152;49.202;18.744;2022-12-07T08:44:10;96968.47;;;3.26;71.90
70589;BME280;58152;49.202;18.744;2022-12-07T08:46:52;96974.41;;;3.31;71.77
70589;BME280;58152;49.202;18.744;2022-12-07T08:49:25;96981.22;;;3.36;71.82
70589;BME280;58152;49.202;18.744;2022-12-07T08:51:57;96987.22;;;3.38;71.59
70589;BME280;58152;49.202;18.744;2022-12-07T08:54:23;96983.03;;;3.32;71.23
70589;BME280;58152;49.202;18.744;2022-12-07T08:56:49;96982.22;;;3.30;70.87
70589;BME280;58152;49.202;18.744;2022-12-07T08:59:17;96980.44;;;3.32;71.04
70589;BME280;58152;49.202;18.744;2022-12-07T09:01:44;96971.91;;;3.27;71.08
70589;BME280;58152;49.202;18.744;2022-12-07T09:04:10;96982.25;;;3.28;70.86
70589;BME280;58152;49.202;18.744;2022-12-07T09:06:40;96983.94;;;3.31;70.57
70589;BME280;58152;49.202;18.744;2022-12-07T09:09:06;96972.81;;;3.26;70.78
70589;BME280;58152;49.202;18.744;2022-12-07T09:11:32;96977.09;;;3.27;70.71
70589;BME280;58152;49.202;18.744;2022-12-07T09:13:57;96980.59;;;3.26;70.24
70589;BME280;58152;49.202;18.744;2022-12-07T09:16:23;96981.44;;;3.25;70.39
70589;BME280;58152;49.202;18.744;2022-12-07T09:18:48;96965.16;;;3.20;70.49
70589;BME280;58152;49.202;18.744;2022-12-07T09:21:14;96976.31;;;3.23;70.47
70589;BME280;58152;49.202;18.744;2022-12-07T09:23:41;96975.50;;;3.20;70.51
70589;BME280;58152;49.202;18.744;2022-12-07T09:26:06;96975.47;;;3.23;70.13
70589;BME280;58152;49.202;18.744;2022-12-07T09:28:32;96972.94;;;3.20;70.34
70589;BME280;58152;49.202;18.744;2022-12-07T09:30:57;96972.06;;;3.19;70.66
70589;BME280;58152;49.202;18.744;2022-12-07T09:33:23;96968.47;;;3.25;70.65
70589;BME280;58152;49.202;18.744;2022-12-07T09:35:49;96965.03;;;3.24;70.61
70589;BME280;58152;49.202;18.744;2022-12-07T09:38:15;96975.31;;;3.29;70.23
70589;BME280;58152;49.202;18.744;2022-12-07T09:40:41;96957.16;;;3.30;70.60
70589;BME280;58152;49.202;18.744;2022-12-07T09:43:26;96949.38;;;3.30;70.53
70589;BME280;58152;49.202;18.744;2022-12-07T09:45:54;96948.47;;;3.31;70.90
70589;BME280;58152;49.202;18.744;2022-12-07T09:48:35;96950.13;;;3.36;70.61
70589;BME280;58152;49.202;18.744;2022-12-07T09:51:03;96960.41;;;3.39;70.81
70589;BME280;58152;49.202;18.744;2022-12-07T09:53:47;96961.28;;;3.39;71.13
70589;BME280;58152;49.202;18.744;2022-12-07T09:56:20;96950.00;;;3.40;70.98
70589;BME280;58152;49.202;18.744;2022-12-07T09:59:01;96950.00;;;3.40;70.71
70589;BME280;58152;49.202;18.744;2022-12-07T10:01:30;96961.19;;;3.42;70.74
70589;BME280;58152;49.202;18.744;2022-12-07T10:04:09;96954.19;;;3.46;71.08
70589;BME280;58152;49.202;18.744;2022-12-07T10:06:41;96946.34;;;3.47;71.16
70589;BME280;58152;49.202;18.744;2022-12-07T10:09:14;96958.34;;;3.53;70.97
70589;BME280;58152;49.202;18.744;2022-12-07T10:14:27;96946.25;;;3.52;70.75
70589;BME280;58152;49.202;18.744;2022-12-07T10:16:54;96956.63;;;3.53;71.04
70589;BME280;58152;49.202;18.744;2022-12-07T10:24:31;96935.28;;;3.41;70.54
70589;BME280;58152;49.202;18.744;2022-12-07T10:26:57;96933.56;;;3.41;70.42
70589;BME280;58152;49.202;18.744;2022-12-07T10:29:36;96931.69;;;3.46;70.34
70589;BME280;58152;49.202;18.744;2022-12-07T10:32:31;96940.31;;;3.48;69.86
70589;BME280;58152;49.202;18.744;2022-12-07T10:37:48;96921.44;;;3.42;69.63
70589;BME280;58152;49.202;18.744;2022-12-07T10:40:36;96922.16;;;3.47;69.95
70589;BME280;58152;49.202;18.744;2022-12-07T10:46:07;96926.44;;;3.49;69.44
70589;BME280;58152;49.202;18.744;2022-12-07T10:54:18;96918.56;;;3.54;69.74
70589;BME280;58152;49.202;18.744;2022-12-07T10:57:02;96913.38;;;3.52;69.10
70589;BME280;58152;49.202;18.744;2022-12-07T11:05:12;96907.28;;;3.55;69.45
70589;BME280;58152;49.202;18.744;2022-12-07T11:16:17;96896.16;;;3.50;69.35
70589;BME280;58152;49.202;18.744;2022-12-07T11:19:06;96895.31;;;3.49;69.72
70589;BME280;58152;49.202;18.744;2022-12-07T11:21:48;96893.53;;;3.51;68.91
70589;BME280;58152;49.202;18.744;2022-12-07T11:30:06;96890.13;;;3.49;68.77
70589;BME280;58152;49.202;18.744;2022-12-07T11:32:57;96893.63;;;3.48;68.84
70589;BME280;58152;49.202;18.744;2022-12-07T11:38:20;96880.78;;;3.42;68.58
70589;BME280;58152;49.202;18.744;2022-12-07T11:40:49;96890.25;;;3.43;68.66
70589;BME280;58152;49.202;18.744;2022-12-07T11:43:32;96893.63;;;3.48;68.29
70589;BME280;58152;49.202;18.744;2022-12-07T11:51:01;96897.88;;;3.51;68.38
70589;BME280;58152;49.202;18.744;2022-12-07T11:54:01;96899.63;;;3.50;67.94
70589;BME280;58152;49.202;18.744;2022-12-07T11:56:22;96897.06;;;3.49;67.87
70589;BME280;58152;49.202;18.744;2022-12-07T11:59:02;96891.13;;;3.44;68.26
70589;BME280;58152;49.202;18.744;2022-12-07T12:01:44;96886.81;;;3.43;67.86
70589;BME280;58152;49.202;18.744;2022-12-07T12:04:39;96900.56;;;3.46;67.71
70589;BME280;58152;49.202;18.744;2022-12-07T12:07:07;96889.53;;;3.38;67.98
70589;BME280;58152;49.202;18.744;2022-12-07T12:09:41;96887.81;;;3.37;67.99
70589;BME280;58152;49.202;18.744;2022-12-07T12:12:31;96897.28;;;3.40;68.24
70589;BME280;58152;49.202;18.744;2022-12-07T12:15:27;96899.88;;;3.40;67.45
70589;BME280;58152;49.202;18.744;2022-12-07T12:20:58;96893.91;;;3.36;67.95
70589;BME280;58152;49.202;18.744;2022-12-07T12:23:48;96906.78;;;3.41;67.57
70589;BME280;58152;49.202;18.744;2022-12-07T12:27:01;96897.47;;;3.32;67.31
70589;BME280;58152;49.202;18.744;2022-12-07T12:37:53;96908.47;;;3.42;66.89
70589;BME280;58152;49.202;18.744;2022-12-07T12:42:49;96889.63;;;3.35;67.47
70589;BME280;58152;49.202;18.744;2022-12-07T12:45:21;96886.94;;;3.38;67.50
70589;BME280;58152;49.202;18.744;2022-12-07T12:54:05;96886.94;;;3.38;67.37
70589;BME280;58152;49.202;18.744;2022-12-07T12:59:29;96891.59;;;3.60;66.75
70589;BME280;58152;49.202;18.744;2022-12-07T13:04:34;96881.22;;;3.60;66.77
70589;BME280;58152;49.202;18.744;2022-12-07T13:07:01;96893.31;;;3.61;66.49
70589;BME280;58152;49.202;18.744;2022-12-07T13:09:29;96893.31;;;3.61;66.80
70589;BME280;58152;49.202;18.744;2022-12-07T13:12:12;96895.88;;;3.61;66.71
70589;BME280;58152;49.202;18.744;2022-12-07T13:14:54;96900.28;;;3.59;66.49
70589;BME280;58152;49.202;18.744;2022-12-07T13:19:59;96888.44;;;3.48;66.79
70589;BME280;58152;49.202;18.744;2022-12-07T13:25:09;96901.34;;;3.50;66.41
70589;BME280;58152;49.202;18.744;2022-12-07T13:27:39;96901.41;;;3.47;66.19
70589;BME280;58152;49.202;18.744;2022-12-07T13:30:18;96907.50;;;3.46;66.61
70589;BME280;58152;49.202;18.744;2022-12-07T13:33:03;96897.13;;;3.46;66.82
70589;BME280;58152;49.202;18.744;2022-12-07T13:35:39;96911.56;;;3.58;66.54
70589;BME280;58152;49.202;18.744;2022-12-07T13:38:33;96902.13;;;3.53;66.63
70589;BME280;58152;49.202;18.744;2022-12-07T13:44:05;96909.75;;;3.60;66.18
70589;BME280;58152;49.202;18.744;2022-12-07T13:46:40;96904.72;;;3.53;66.32
70589;BME280;58152;49.202;18.744;2022-12-07T13:49:23;96917.59;;;3.56;66.32
70589;BME280;58152;49.202;18.744;2022-12-07T13:51:49;96905.66;;;3.51;66.87
70589;BME280;58152;49.202;18.744;2022-12-07T13:54:16;96899.53;;;3.53;66.60
70589;BME280;58152;49.202;18.744;2022-12-07T13:56:43;96908.00;;;3.60;66.79
70589;BME280;58152;49.202;18.744;2022-12-07T13:59:17;96911.44;;;3.62;66.59
70589;BME280;58152;49.202;18.744;2022-12-07T14:01:46;96905.47;;;3.59;66.84
70589;BME280;58152;49.202;18.744;2022-12-07T14:04:30;96906.38;;;3.58;66.58
70589;BME280;58152;49.202;18.744;2022-12-07T14:07:25;96905.53;;;3.55;66.58
70589;BME280;58152;49.202;18.744;2022-12-07T14:09:56;96911.56;;;3.56;66.40
70589;BME280;58152;49.202;18.744;2022-12-07T14:12:23;96904.72;;;3.53;66.05
70589;BME280;58152;49.202;18.744;2022-12-07T14:14:50;96906.50;;;3.51;66.24
70589;BME280;58152;49.202;18.744;2022-12-07T14:17:18;96908.25;;;3.51;66.41
70589;BME280;58152;49.202;18.744;2022-12-07T14:25:53;96898.94;;;3.42;66.11
70589;BME280;58152;49.202;18.744;2022-12-07T14:28:36;96911.94;;;3.41;65.82
70589;BME280;58152;49.202;18.744;2022-12-07T14:41:03;96919.00;;;3.34;65.59
70589;BME280;58152;49.202;18.744;2022-12-07T14:43:52;96918.38;;;3.24;65.33
70589;BME280;58152;49.202;18.744;2022-12-07T14:53:26;96920.22;;;3.19;65.82
70589;BME280;58152;49.202;18.744;2022-12-07T15:22:13;96950.38;;;3.23;66.92
70589;BME280;58152;49.202;18.744;2022-12-07T16:01:16;96946.16;;;3.19;66.43
70589;BME280;58152;49.202;18.744;2022-12-07T16:03:54;96952.22;;;3.18;66.40
70589;BME280;58152;49.202;18.744;2022-12-07T16:06:22;96952.28;;;3.17;66.42
70589;BME280;58152;49.202;18.744;2022-12-07T16:21:14;96951.44;;;3.15;66.64
70589;BME280;58152;49.202;18.744;2022-12-07T16:23:49;96939.28;;;3.18;67.04
70589;BME280;58152;49.202;18.744;2022-12-07T16:41:43;96940.06;;;3.20;66.38
70589;BME280;58152;49.202;18.744;2022-12-07T21:14:24;96999.94;;;2.68;66.17
70589;BME280;58152;49.202;18.744;2022-12-07T21:17:34;96993.94;;;2.66;66.46
70589;BME280;58152;49.202;18.744;2022-12-07T21:20:12;97005.16;;;2.66;66.57
70589;BME280;58152;49.202;18.744;2022-12-07T21:22:47;96999.91;;;2.71;66.72
70589;BME280;58152;49.202;18.744;2022-12-07T21:25:25;96996.63;;;2.61;66.55
70589;BME280;58152;49.202;18.744;2022-12-07T21:27:50;97002.50;;;2.69;66.77
70589;BME280;58152;49.202;18.744;2022-12-07T21:30:21;97000.84;;;2.67;66.50
70589;BME280;58152;49.202;18.744;2022-12-07T21:33:05;96995.66;;;2.67;66.50
70589;BME280;58152;49.202;18.744;2022-12-07T21:38:51;96999.97;;;2.66;67.18
70589;BME280;58152;49.202;18.744;2022-12-07T21:43:47;96987.97;;;2.62;67.15